NFFN

Nadi International Airport

Airport
ICAO code
NFFN
IATA Code
NAN
Summary
ICAO Region
APAC
ICAO Territory
Location

Nadi, Western

Serving
Nadi
Elevation
59 ft
Coordinates
17° 45' 19" S , 177° 26' 36" E
KCC
Metar
Observation
NFFN 080900Z 17004KT 9999 FEW028 BKN300 27/23 Q1007 NOSIG
Station
Nandi
Date/Time
2022-12-08 09:00:00
Wind direction
170°
Wind speed
04 kts
Lowest cloud amount
few clouds
Temperature
27°C
Dew point
23°C
Humidity
78%
QNH
1007 hPa
Weather condition
n/a

Description

Nadi International Airport is the main international gateway for the islands of Fiji. The airport is 10 km from the city of Nadi.

Climatology

Tropical Rainforest climate (Köppen climate classification Af) - almost no distinct seasons, average daily temperature around 27°C throughout the year. Extensive cloud cover and heavy rainfall prevent temperatures from rising much over 33°C. The diurnal temperature change is between 2°C and 5°C which is greater than the annual temperature range of 2°C. Rainfall is heavy and is usually convectional and in the afternoon.

Runways

Designator Length Width Surface Rops
9/27 2136 46 ASP Yes/Yes
2/20 3273 46 ASP Yes/Yes

Airport map

Aerial View

Airport accidents

SKYbrary Partners:

Safety knowledge contributed by: